sensor_id;sensor_type;location;lat;lon;timestamp;P1;durP1;ratioP1;P2;durP2;ratioP2
25191;SDS011;13143;50.924;5.320;2023-02-26T00:00:15;18.85;;;5.32;;
25191;SDS011;13143;50.924;5.320;2023-02-26T00:02:44;13.15;;;4.32;;
25191;SDS011;13143;50.924;5.320;2023-02-26T00:05:12;18.88;;;5.65;;
25191;SDS011;13143;50.924;5.320;2023-02-26T00:07:38;18.40;;;5.22;;
25191;SDS011;13143;50.924;5.320;2023-02-26T00:10:05;14.52;;;4.85;;
25191;SDS011;13143;50.924;5.320;2023-02-26T00:12:32;15.43;;;5.10;;
25191;SDS011;13143;50.924;5.320;2023-02-26T00:14:58;17.42;;;4.82;;
25191;SDS011;13143;50.924;5.320;2023-02-26T00:17:41;23.65;;;5.07;;
25191;SDS011;13143;50.924;5.320;2023-02-26T00:20:40;13.73;;;4.78;;
25191;SDS011;13143;50.924;5.320;2023-02-26T00:23:12;17.35;;;5.03;;
25191;SDS011;13143;50.924;5.320;2023-02-26T00:25:38;15.27;;;4.82;;
25191;SDS011;13143;50.924;5.320;2023-02-26T00:28:05;19.50;;;5.15;;
25191;SDS011;13143;50.924;5.320;2023-02-26T00:30:31;19.98;;;4.85;;
25191;SDS011;13143;50.924;5.320;2023-02-26T00:32:57;18.90;;;4.65;;
25191;SDS011;13143;50.924;5.320;2023-02-26T00:35:23;14.63;;;4.40;;
25191;SDS011;13143;50.924;5.320;2023-02-26T00:43:08;13.43;;;3.97;;
25191;SDS011;13143;50.924;5.320;2023-02-26T00:45:37;20.35;;;5.30;;
25191;SDS011;13143;50.924;5.320;2023-02-26T00:50:58;17.05;;;4.18;;
25191;SDS011;13143;50.924;5.320;2023-02-26T00:53:33;14.95;;;4.45;;
25191;SDS011;13143;50.924;5.320;2023-02-26T00:56:07;17.58;;;4.35;;
25191;SDS011;13143;50.924;5.320;2023-02-26T00:58:33;18.02;;;4.30;;
25191;SDS011;13143;50.924;5.320;2023-02-26T01:00:58;18.35;;;4.55;;
25191;SDS011;13143;50.924;5.320;2023-02-26T01:03:24;24.60;;;4.65;;
25191;SDS011;13143;50.924;5.320;2023-02-26T01:05:50;25.05;;;5.25;;
25191;SDS011;13143;50.924;5.320;2023-02-26T01:13:46;18.13;;;5.30;;
25191;SDS011;13143;50.924;5.320;2023-02-26T01:16:13;17.55;;;4.72;;
25191;SDS011;13143;50.924;5.320;2023-02-26T01:21:37;18.20;;;5.53;;
25191;SDS011;13143;50.924;5.320;2023-02-26T01:24:11;20.45;;;4.93;;
25191;SDS011;13143;50.924;5.320;2023-02-26T01:26:39;12.02;;;4.20;;
25191;SDS011;13143;50.924;5.320;2023-02-26T01:29:05;18.30;;;4.55;;
25191;SDS011;13143;50.924;5.320;2023-02-26T01:31:34;14.07;;;4.50;;
25191;SDS011;13143;50.924;5.320;2023-02-26T01:34:31;22.90;;;3.95;;
25191;SDS011;13143;50.924;5.320;2023-02-26T01:37:13;15.25;;;4.20;;
25191;SDS011;13143;50.924;5.320;2023-02-26T01:42:45;29.88;;;4.47;;
25191;SDS011;13143;50.924;5.320;2023-02-26T01:45:15;18.98;;;4.47;;
25191;SDS011;13143;50.924;5.320;2023-02-26T01:47:48;23.50;;;6.30;;
25191;SDS011;13143;50.924;5.320;2023-02-26T01:50:20;18.77;;;3.85;;
25191;SDS011;13143;50.924;5.320;2023-02-26T01:55:38;16.77;;;4.05;;
25191;SDS011;13143;50.924;5.320;2023-02-26T01:58:08;20.95;;;4.47;;
25191;SDS011;13143;50.924;5.320;2023-02-26T02:00:34;23.13;;;4.25;;
25191;SDS011;13143;50.924;5.320;2023-02-26T02:03:00;23.38;;;4.65;;
25191;SDS011;13143;50.924;5.320;2023-02-26T02:05:27;15.15;;;4.72;;
25191;SDS011;13143;50.924;5.320;2023-02-26T02:08:15;21.17;;;4.55;;
25191;SDS011;13143;50.924;5.320;2023-02-26T02:10:45;23.17;;;4.47;;
25191;SDS011;13143;50.924;5.320;2023-02-26T02:13:22;11.77;;;4.13;;
25191;SDS011;13143;50.924;5.320;2023-02-26T02:24:12;17.83;;;4.57;;
25191;SDS011;13143;50.924;5.320;2023-02-26T02:29:27;14.30;;;5.00;;
25191;SDS011;13143;50.924;5.320;2023-02-26T02:39:59;14.13;;;4.57;;
25191;SDS011;13143;50.924;5.320;2023-02-26T02:42:37;14.70;;;4.30;;
25191;SDS011;13143;50.924;5.320;2023-02-26T02:45:31;12.07;;;3.97;;
25191;SDS011;13143;50.924;5.320;2023-02-26T02:48:23;17.38;;;4.03;;
25191;SDS011;13143;50.924;5.320;2023-02-26T02:50:56;13.38;;;3.55;;
25191;SDS011;13143;50.924;5.320;2023-02-26T02:53:31;18.95;;;4.05;;
25191;SDS011;13143;50.924;5.320;2023-02-26T02:56:05;19.80;;;4.20;;
25191;SDS011;13143;50.924;5.320;2023-02-26T02:58:37;13.15;;;4.00;;
25191;SDS011;13143;50.924;5.320;2023-02-26T03:01:07;17.73;;;3.47;;
25191;SDS011;13143;50.924;5.320;2023-02-26T03:06:01;12.45;;;3.30;;
25191;SDS011;13143;50.924;5.320;2023-02-26T03:08:28;11.00;;;3.60;;
25191;SDS011;13143;50.924;5.320;2023-02-26T03:10:58;21.73;;;4.43;;
25191;SDS011;13143;50.924;5.320;2023-02-26T03:13:24;14.50;;;3.58;;
25191;SDS011;13143;50.924;5.320;2023-02-26T03:24:36;17.50;;;3.45;;
25191;SDS011;13143;50.924;5.320;2023-02-26T03:27:07;13.15;;;3.55;;
25191;SDS011;13143;50.924;5.320;2023-02-26T03:29:40;8.90;;;3.53;;
25191;SDS011;13143;50.924;5.320;2023-02-26T03:32:27;9.73;;;3.28;;
25191;SDS011;13143;50.924;5.320;2023-02-26T03:37:41;11.65;;;3.60;;
25191;SDS011;13143;50.924;5.320;2023-02-26T03:40:14;14.80;;;2.95;;
25191;SDS011;13143;50.924;5.320;2023-02-26T03:43:06;10.70;;;2.95;;
25191;SDS011;13143;50.924;5.320;2023-02-26T03:45:39;12.88;;;3.45;;
25191;SDS011;13143;50.924;5.320;2023-02-26T03:48:09;11.05;;;2.45;;
25191;SDS011;13143;50.924;5.320;2023-02-26T03:50:49;13.98;;;3.00;;
25191;SDS011;13143;50.924;5.320;2023-02-26T03:53:22;10.18;;;3.10;;
25191;SDS011;13143;50.924;5.320;2023-02-26T03:55:52;18.95;;;3.65;;
25191;SDS011;13143;50.924;5.320;2023-02-26T03:58:23;13.93;;;3.35;;
25191;SDS011;13143;50.924;5.320;2023-02-26T04:00:51;12.27;;;3.10;;
25191;SDS011;13143;50.924;5.320;2023-02-26T04:03:26;13.63;;;3.47;;
25191;SDS011;13143;50.924;5.320;2023-02-26T04:06:04;10.02;;;3.05;;
25191;SDS011;13143;50.924;5.320;2023-02-26T04:08:31;12.43;;;2.70;;
25191;SDS011;13143;50.924;5.320;2023-02-26T04:10:58;15.48;;;3.00;;
25191;SDS011;13143;50.924;5.320;2023-02-26T04:13:28;15.88;;;3.05;;
25191;SDS011;13143;50.924;5.320;2023-02-26T04:15:54;12.45;;;2.70;;
25191;SDS011;13143;50.924;5.320;2023-02-26T04:18:19;17.83;;;3.78;;
25191;SDS011;13143;50.924;5.320;2023-02-26T04:20:45;7.90;;;3.05;;
25191;SDS011;13143;50.924;5.320;2023-02-26T04:23:11;14.60;;;3.38;;
25191;SDS011;13143;50.924;5.320;2023-02-26T04:25:36;11.95;;;2.83;;
25191;SDS011;13143;50.924;5.320;2023-02-26T04:28:03;13.45;;;3.22;;
25191;SDS011;13143;50.924;5.320;2023-02-26T04:30:28;14.32;;;3.28;;
25191;SDS011;13143;50.924;5.320;2023-02-26T04:32:54;11.52;;;3.25;;
25191;SDS011;13143;50.924;5.320;2023-02-26T04:35:20;13.38;;;3.00;;
25191;SDS011;13143;50.924;5.320;2023-02-26T04:37:45;15.05;;;3.33;;
25191;SDS011;13143;50.924;5.320;2023-02-26T04:40:11;10.85;;;2.80;;
25191;SDS011;13143;50.924;5.320;2023-02-26T04:42:37;12.18;;;3.00;;
25191;SDS011;13143;50.924;5.320;2023-02-26T04:45:03;15.70;;;2.90;;
25191;SDS011;13143;50.924;5.320;2023-02-26T04:47:28;14.23;;;2.97;;
25191;SDS011;13143;50.924;5.320;2023-02-26T04:49:54;13.35;;;2.67;;
25191;SDS011;13143;50.924;5.320;2023-02-26T04:52:20;17.80;;;3.75;;
25191;SDS011;13143;50.924;5.320;2023-02-26T04:54:45;13.00;;;2.80;;
25191;SDS011;13143;50.924;5.320;2023-02-26T04:57:11;7.75;;;2.38;;
25191;SDS011;13143;50.924;5.320;2023-02-26T04:59:37;9.63;;;2.80;;
25191;SDS011;13143;50.924;5.320;2023-02-26T05:02:02;10.43;;;2.95;;
25191;SDS011;13143;50.924;5.320;2023-02-26T05:04:29;14.50;;;3.13;;
25191;SDS011;13143;50.924;5.320;2023-02-26T05:06:55;9.13;;;2.83;;
25191;SDS011;13143;50.924;5.320;2023-02-26T05:09:21;8.55;;;3.05;;
25191;SDS011;13143;50.924;5.320;2023-02-26T05:11:46;12.40;;;2.67;;
25191;SDS011;13143;50.924;5.320;2023-02-26T05:14:13;9.82;;;2.58;;
25191;SDS011;13143;50.924;5.320;2023-02-26T05:16:39;13.48;;;2.58;;
25191;SDS011;13143;50.924;5.320;2023-02-26T05:19:04;9.13;;;2.28;;
25191;SDS011;13143;50.924;5.320;2023-02-26T05:21:30;8.82;;;2.40;;
25191;SDS011;13143;50.924;5.320;2023-02-26T05:23:56;9.50;;;2.45;;
25191;SDS011;13143;50.924;5.320;2023-02-26T05:26:21;12.80;;;2.38;;
25191;SDS011;13143;50.924;5.320;2023-02-26T05:28:47;12.35;;;2.65;;
25191;SDS011;13143;50.924;5.320;2023-02-26T05:31:13;11.73;;;2.20;;
25191;SDS011;13143;50.924;5.320;2023-02-26T05:33:39;9.27;;;3.08;;
25191;SDS011;13143;50.924;5.320;2023-02-26T05:36:05;9.80;;;2.65;;
25191;SDS011;13143;50.924;5.320;2023-02-26T05:38:32;8.00;;;2.20;;
25191;SDS011;13143;50.924;5.320;2023-02-26T05:40:58;8.63;;;2.47;;
25191;SDS011;13143;50.924;5.320;2023-02-26T05:43:24;8.15;;;2.28;;
25191;SDS011;13143;50.924;5.320;2023-02-26T05:45:51;12.75;;;2.60;;
25191;SDS011;13143;50.924;5.320;2023-02-26T05:48:17;11.30;;;2.47;;
25191;SDS011;13143;50.924;5.320;2023-02-26T05:50:42;9.05;;;2.30;;
25191;SDS011;13143;50.924;5.320;2023-02-26T05:53:08;16.73;;;2.65;;
25191;SDS011;13143;50.924;5.320;2023-02-26T05:55:34;5.97;;;2.05;;
25191;SDS011;13143;50.924;5.320;2023-02-26T05:58:00;7.03;;;2.13;;
25191;SDS011;13143;50.924;5.320;2023-02-26T06:00:26;11.38;;;2.53;;
25191;SDS011;13143;50.924;5.320;2023-02-26T06:02:51;13.95;;;2.20;;
25191;SDS011;13143;50.924;5.320;2023-02-26T06:05:18;12.20;;;2.35;;
25191;SDS011;13143;50.924;5.320;2023-02-26T06:07:43;7.13;;;2.05;;
25191;SDS011;13143;50.924;5.320;2023-02-26T06:10:09;9.88;;;2.20;;
25191;SDS011;13143;50.924;5.320;2023-02-26T06:12:36;8.30;;;2.10;;
25191;SDS011;13143;50.924;5.320;2023-02-26T06:15:02;11.45;;;2.63;;
25191;SDS011;13143;50.924;5.320;2023-02-26T06:17:28;9.95;;;2.10;;
25191;SDS011;13143;50.924;5.320;2023-02-26T06:19:54;10.18;;;2.15;;
25191;SDS011;13143;50.924;5.320;2023-02-26T06:22:19;11.75;;;2.10;;
25191;SDS011;13143;50.924;5.320;2023-02-26T06:24:45;8.25;;;2.28;;
25191;SDS011;13143;50.924;5.320;2023-02-26T06:27:11;20.73;;;2.72;;
25191;SDS011;13143;50.924;5.320;2023-02-26T06:29:37;7.72;;;2.20;;
25191;SDS011;13143;50.924;5.320;2023-02-26T06:32:03;15.05;;;2.10;;
25191;SDS011;13143;50.924;5.320;2023-02-26T06:34:29;7.32;;;1.90;;
25191;SDS011;13143;50.924;5.320;2023-02-26T06:36:55;11.80;;;2.50;;
25191;SDS011;13143;50.924;5.320;2023-02-26T06:39:21;14.20;;;2.10;;
25191;SDS011;13143;50.924;5.320;2023-02-26T06:41:46;9.20;;;2.08;;
25191;SDS011;13143;50.924;5.320;2023-02-26T06:44:12;8.75;;;2.88;;
25191;SDS011;13143;50.924;5.320;2023-02-26T06:46:38;6.13;;;1.67;;
25191;SDS011;13143;50.924;5.320;2023-02-26T06:49:03;12.77;;;2.50;;
25191;SDS011;13143;50.924;5.320;2023-02-26T06:51:29;11.15;;;2.42;;
25191;SDS011;13143;50.924;5.320;2023-02-26T06:53:55;14.77;;;1.92;;
25191;SDS011;13143;50.924;5.320;2023-02-26T06:56:21;10.18;;;2.17;;
25191;SDS011;13143;50.924;5.320;2023-02-26T06:58:48;9.65;;;2.20;;
25191;SDS011;13143;50.924;5.320;2023-02-26T07:01:14;6.25;;;2.00;;
25191;SDS011;13143;50.924;5.320;2023-02-26T07:03:40;5.97;;;1.88;;
25191;SDS011;13143;50.924;5.320;2023-02-26T07:06:06;11.82;;;2.00;;
25191;SDS011;13143;50.924;5.320;2023-02-26T07:08:32;8.10;;;2.35;;
25191;SDS011;13143;50.924;5.320;2023-02-26T07:10:59;8.32;;;2.22;;
25191;SDS011;13143;50.924;5.320;2023-02-26T07:13:24;9.43;;;1.90;;
25191;SDS011;13143;50.924;5.320;2023-02-26T07:15:50;6.53;;;1.90;;
25191;SDS011;13143;50.924;5.320;2023-02-26T07:18:16;10.07;;;1.88;;
25191;SDS011;13143;50.924;5.320;2023-02-26T07:20:42;8.73;;;2.10;;
25191;SDS011;13143;50.924;5.320;2023-02-26T07:23:09;14.45;;;2.33;;
25191;SDS011;13143;50.924;5.320;2023-02-26T07:25:35;5.13;;;2.25;;
25191;SDS011;13143;50.924;5.320;2023-02-26T07:28:01;12.32;;;1.95;;
25191;SDS011;13143;50.924;5.320;2023-02-26T07:30:28;8.73;;;2.10;;
25191;SDS011;13143;50.924;5.320;2023-02-26T07:32:53;14.68;;;2.40;;
25191;SDS011;13143;50.924;5.320;2023-02-26T07:35:19;8.65;;;2.20;;
25191;SDS011;13143;50.924;5.320;2023-02-26T07:37:45;10.43;;;2.38;;
25191;SDS011;13143;50.924;5.320;2023-02-26T07:40:11;11.75;;;2.08;;
25191;SDS011;13143;50.924;5.320;2023-02-26T07:42:37;9.95;;;2.10;;
25191;SDS011;13143;50.924;5.320;2023-02-26T07:45:04;9.43;;;1.88;;
25191;SDS011;13143;50.924;5.320;2023-02-26T07:47:31;14.85;;;1.90;;
25191;SDS011;13143;50.924;5.320;2023-02-26T07:49:56;12.93;;;2.38;;
25191;SDS011;13143;50.924;5.320;2023-02-26T07:52:22;11.05;;;3.03;;
25191;SDS011;13143;50.924;5.320;2023-02-26T07:54:48;17.35;;;2.28;;
25191;SDS011;13143;50.924;5.320;2023-02-26T07:57:13;12.98;;;2.17;;
25191;SDS011;13143;50.924;5.320;2023-02-26T07:59:39;12.88;;;2.10;;
25191;SDS011;13143;50.924;5.320;2023-02-26T08:02:05;8.95;;;2.30;;
25191;SDS011;13143;50.924;5.320;2023-02-26T08:04:31;11.98;;;2.00;;
25191;SDS011;13143;50.924;5.320;2023-02-26T08:06:57;12.55;;;2.05;;
25191;SDS011;13143;50.924;5.320;2023-02-26T08:09:25;8.23;;;2.10;;
25191;SDS011;13143;50.924;5.320;2023-02-26T08:11:51;6.35;;;1.92;;
25191;SDS011;13143;50.924;5.320;2023-02-26T08:14:16;11.10;;;2.05;;
25191;SDS011;13143;50.924;5.320;2023-02-26T08:16:42;9.15;;;1.77;;
25191;SDS011;13143;50.924;5.320;2023-02-26T08:19:08;5.13;;;1.60;;
25191;SDS011;13143;50.924;5.320;2023-02-26T08:21:33;6.78;;;2.33;;
25191;SDS011;13143;50.924;5.320;2023-02-26T08:23:59;9.85;;;1.80;;
25191;SDS011;13143;50.924;5.320;2023-02-26T08:26:25;8.07;;;2.08;;
25191;SDS011;13143;50.924;5.320;2023-02-26T08:28:51;7.00;;;1.95;;
25191;SDS011;13143;50.924;5.320;2023-02-26T08:31:17;10.07;;;2.10;;
25191;SDS011;13143;50.924;5.320;2023-02-26T08:33:43;6.35;;;2.17;;
25191;SDS011;13143;50.924;5.320;2023-02-26T08:36:09;8.55;;;1.95;;
25191;SDS011;13143;50.924;5.320;2023-02-26T08:38:35;7.53;;;2.08;;
25191;SDS011;13143;50.924;5.320;2023-02-26T08:41:00;9.55;;;2.85;;
25191;SDS011;13143;50.924;5.320;2023-02-26T08:43:26;11.23;;;2.47;;
25191;SDS011;13143;50.924;5.320;2023-02-26T08:45:54;12.13;;;2.45;;
25191;SDS011;13143;50.924;5.320;2023-02-26T08:48:20;8.63;;;2.10;;
25191;SDS011;13143;50.924;5.320;2023-02-26T08:50:46;8.70;;;2.20;;
25191;SDS011;13143;50.924;5.320;2023-02-26T08:53:12;12.82;;;2.42;;
25191;SDS011;13143;50.924;5.320;2023-02-26T08:55:38;4.70;;;1.80;;
25191;SDS011;13143;50.924;5.320;2023-02-26T08:58:03;8.20;;;1.60;;
25191;SDS011;13143;50.924;5.320;2023-02-26T09:00:29;11.30;;;2.00;;
25191;SDS011;13143;50.924;5.320;2023-02-26T09:02:56;11.45;;;3.92;;
25191;SDS011;13143;50.924;5.320;2023-02-26T09:05:21;5.30;;;2.00;;
25191;SDS011;13143;50.924;5.320;2023-02-26T09:07:47;9.77;;;2.40;;
25191;SDS011;13143;50.924;5.320;2023-02-26T09:10:13;7.93;;;2.25;;
25191;SDS011;13143;50.924;5.320;2023-02-26T09:12:39;9.20;;;2.00;;
25191;SDS011;13143;50.924;5.320;2023-02-26T09:15:05;4.15;;;1.65;;
25191;SDS011;13143;50.924;5.320;2023-02-26T09:17:33;9.07;;;2.08;;
25191;SDS011;13143;50.924;5.320;2023-02-26T09:19:59;9.80;;;1.92;;
25191;SDS011;13143;50.924;5.320;2023-02-26T09:22:25;4.43;;;1.90;;
25191;SDS011;13143;50.924;5.320;2023-02-26T09:24:50;8.07;;;1.77;;
25191;SDS011;13143;50.924;5.320;2023-02-26T09:27:16;3.88;;;1.50;;
25191;SDS011;13143;50.924;5.320;2023-02-26T09:29:42;9.30;;;2.25;;
25191;SDS011;13143;50.924;5.320;2023-02-26T09:32:08;8.18;;;1.60;;
25191;SDS011;13143;50.924;5.320;2023-02-26T09:34:34;7.60;;;1.88;;
25191;SDS011;13143;50.924;5.320;2023-02-26T09:37:01;6.80;;;1.50;;
25191;SDS011;13143;50.924;5.320;2023-02-26T09:39:31;7.43;;;2.08;;
25191;SDS011;13143;50.924;5.320;2023-02-26T09:44:40;6.68;;;2.40;;
25191;SDS011;13143;50.924;5.320;2023-02-26T09:50:10;7.05;;;2.33;;
25191;SDS011;13143;50.924;5.320;2023-02-26T09:52:48;8.02;;;1.65;;
25191;SDS011;13143;50.924;5.320;2023-02-26T09:55:39;9.20;;;1.83;;
25191;SDS011;13143;50.924;5.320;2023-02-26T09:58:19;4.38;;;1.60;;
25191;SDS011;13143;50.924;5.320;2023-02-26T10:00:59;7.38;;;1.70;;
25191;SDS011;13143;50.924;5.320;2023-02-26T10:14:41;6.35;;;1.90;;
25191;SDS011;13143;50.924;5.320;2023-02-26T10:19:55;4.28;;;1.63;;
25191;SDS011;13143;50.924;5.320;2023-02-26T10:30:41;7.85;;;1.80;;
25191;SDS011;13143;50.924;5.320;2023-02-26T10:36:03;5.82;;;1.10;;
25191;SDS011;13143;50.924;5.320;2023-02-26T10:38:46;3.65;;;0.85;;
25191;SDS011;13143;50.924;5.320;2023-02-26T10:41:16;4.82;;;1.20;;
25191;SDS011;13143;50.924;5.320;2023-02-26T10:43:51;7.10;;;1.23;;
25191;SDS011;13143;50.924;5.320;2023-02-26T10:52:14;3.57;;;0.83;;
25191;SDS011;13143;50.924;5.320;2023-02-26T10:57:30;6.10;;;1.35;;
25191;SDS011;13143;50.924;5.320;2023-02-26T10:59:58;5.53;;;1.20;;
25191;SDS011;13143;50.924;5.320;2023-02-26T11:02:41;5.10;;;0.80;;
25191;SDS011;13143;50.924;5.320;2023-02-26T11:05:26;3.28;;;0.68;;
25191;SDS011;13143;50.924;5.320;2023-02-26T11:10:24;6.35;;;1.20;;
25191;SDS011;13143;50.924;5.320;2023-02-26T11:12:55;4.32;;;1.05;;
25191;SDS011;13143;50.924;5.320;2023-02-26T11:15:24;3.78;;;1.10;;
25191;SDS011;13143;50.924;5.320;2023-02-26T11:17:55;4.13;;;1.45;;
25191;SDS011;13143;50.924;5.320;2023-02-26T11:22:52;6.28;;;1.55;;
25191;SDS011;13143;50.924;5.320;2023-02-26T11:25:22;7.68;;;1.55;;
25191;SDS011;13143;50.924;5.320;2023-02-26T11:27:51;3.50;;;1.00;;
25191;SDS011;13143;50.924;5.320;2023-02-26T11:30:24;9.52;;;1.23;;
25191;SDS011;13143;50.924;5.320;2023-02-26T11:32:52;4.03;;;1.00;;
25191;SDS011;13143;50.924;5.320;2023-02-26T11:35:24;3.85;;;1.42;;
25191;SDS011;13143;50.924;5.320;2023-02-26T11:37:52;5.97;;;1.00;;
25191;SDS011;13143;50.924;5.320;2023-02-26T11:40:34;1.52;;;0.75;;
25191;SDS011;13143;50.924;5.320;2023-02-26T11:43:10;4.22;;;1.25;;
25191;SDS011;13143;50.924;5.320;2023-02-26T11:45:43;3.35;;;0.70;;
25191;SDS011;13143;50.924;5.320;2023-02-26T11:48:18;4.55;;;1.10;;
25191;SDS011;13143;50.924;5.320;2023-02-26T11:50:48;4.47;;;1.10;;
25191;SDS011;13143;50.924;5.320;2023-02-26T11:53:23;2.80;;;0.77;;
25191;SDS011;13143;50.924;5.320;2023-02-26T11:56:01;2.67;;;0.90;;
25191;SDS011;13143;50.924;5.320;2023-02-26T11:58:34;4.95;;;1.13;;
25191;SDS011;13143;50.924;5.320;2023-02-26T12:01:02;2.90;;;0.93;;
25191;SDS011;13143;50.924;5.320;2023-02-26T12:03:31;2.55;;;1.20;;
25191;SDS011;13143;50.924;5.320;2023-02-26T12:05:59;4.63;;;1.30;;
25191;SDS011;13143;50.924;5.320;2023-02-26T12:16:24;4.38;;;1.00;;
25191;SDS011;13143;50.924;5.320;2023-02-26T12:24:46;3.47;;;1.15;;
25191;SDS011;13143;50.924;5.320;2023-02-26T12:38:36;3.83;;;1.40;;
25191;SDS011;13143;50.924;5.320;2023-02-26T12:43:55;4.03;;;1.20;;
25191;SDS011;13143;50.924;5.320;2023-02-26T12:51:41;3.25;;;1.27;;
25191;SDS011;13143;50.924;5.320;2023-02-26T13:13:00;3.92;;;0.90;;
25191;SDS011;13143;50.924;5.320;2023-02-26T13:16:10;2.10;;;0.80;;
25191;SDS011;13143;50.924;5.320;2023-02-26T13:21:23;6.85;;;1.55;;
25191;SDS011;13143;50.924;5.320;2023-02-26T13:26:42;2.95;;;1.15;;
25191;SDS011;13143;50.924;5.320;2023-02-26T13:29:17;3.28;;;1.00;;
25191;SDS011;13143;50.924;5.320;2023-02-26T13:32:00;5.63;;;1.30;;
25191;SDS011;13143;50.924;5.320;2023-02-26T13:37:57;4.28;;;1.00;;
25191;SDS011;13143;50.924;5.320;2023-02-26T13:51:43;4.75;;;1.20;;
25191;SDS011;13143;50.924;5.320;2023-02-26T13:59:16;4.15;;;1.05;;
25191;SDS011;13143;50.924;5.320;2023-02-26T14:02:00;5.28;;;1.10;;
25191;SDS011;13143;50.924;5.320;2023-02-26T14:04:28;3.78;;;0.98;;
25191;SDS011;13143;50.924;5.320;2023-02-26T14:09:58;5.43;;;1.30;;
25191;SDS011;13143;50.924;5.320;2023-02-26T14:17:37;4.63;;;1.10;;
25191;SDS011;13143;50.924;5.320;2023-02-26T14:22:46;3.90;;;1.00;;
25191;SDS011;13143;50.924;5.320;2023-02-26T14:27:50;4.57;;;1.08;;
25191;SDS011;13143;50.924;5.320;2023-02-26T14:30:35;3.28;;;1.02;;
25191;SDS011;13143;50.924;5.320;2023-02-26T14:33:12;5.55;;;1.13;;
25191;SDS011;13143;50.924;5.320;2023-02-26T14:35:44;3.08;;;1.13;;
25191;SDS011;13143;50.924;5.320;2023-02-26T14:38:26;3.15;;;1.00;;
25191;SDS011;13143;50.924;5.320;2023-02-26T14:41:08;5.28;;;1.30;;
25191;SDS011;13143;50.924;5.320;2023-02-26T14:43:43;7.80;;;1.17;;
25191;SDS011;13143;50.924;5.320;2023-02-26T14:46:15;2.50;;;0.77;;
25191;SDS011;13143;50.924;5.320;2023-02-26T14:48:42;2.67;;;1.10;;
25191;SDS011;13143;50.924;5.320;2023-02-26T15:08:05;8.77;;;1.45;;
25191;SDS011;13143;50.924;5.320;2023-02-26T15:13:50;2.50;;;1.25;;
25191;SDS011;13143;50.924;5.320;2023-02-26T15:19:21;3.33;;;1.20;;
25191;SDS011;13143;50.924;5.320;2023-02-26T15:24:27;2.28;;;0.85;;
25191;SDS011;13143;50.924;5.320;2023-02-26T15:26:56;3.83;;;1.40;;
25191;SDS011;13143;50.924;5.320;2023-02-26T15:29:29;2.88;;;1.30;;
25191;SDS011;13143;50.924;5.320;2023-02-26T15:31:59;5.40;;;1.38;;
25191;SDS011;13143;50.924;5.320;2023-02-26T15:34:44;2.28;;;0.82;;
25191;SDS011;13143;50.924;5.320;2023-02-26T15:37:17;3.33;;;1.10;;
25191;SDS011;13143;50.924;5.320;2023-02-26T15:39:49;7.30;;;1.17;;
25191;SDS011;13143;50.924;5.320;2023-02-26T15:42:16;4.70;;;1.35;;
25191;SDS011;13143;50.924;5.320;2023-02-26T15:44:44;3.88;;;0.95;;
25191;SDS011;13143;50.924;5.320;2023-02-26T15:47:10;7.55;;;1.00;;
25191;SDS011;13143;50.924;5.320;2023-02-26T15:49:39;4.10;;;1.65;;
25191;SDS011;13143;50.924;5.320;2023-02-26T15:52:07;2.47;;;1.08;;
25191;SDS011;13143;50.924;5.320;2023-02-26T15:54:40;3.25;;;1.10;;
25191;SDS011;13143;50.924;5.320;2023-02-26T15:57:10;3.45;;;0.80;;
25191;SDS011;13143;50.924;5.320;2023-02-26T15:59:40;4.63;;;1.23;;
25191;SDS011;13143;50.924;5.320;2023-02-26T16:02:11;3.40;;;1.35;;
25191;SDS011;13143;50.924;5.320;2023-02-26T16:04:39;5.55;;;1.58;;
25191;SDS011;13143;50.924;5.320;2023-02-26T16:07:05;3.13;;;1.20;;
25191;SDS011;13143;50.924;5.320;2023-02-26T16:09:34;1.65;;;1.15;;
25191;SDS011;13143;50.924;5.320;2023-02-26T16:12:11;2.25;;;1.20;;
25191;SDS011;13143;50.924;5.320;2023-02-26T16:14:48;2.90;;;1.40;;
25191;SDS011;13143;50.924;5.320;2023-02-26T16:17:27;6.28;;;1.08;;
25191;SDS011;13143;50.924;5.320;2023-02-26T16:19:59;2.63;;;1.23;;
25191;SDS011;13143;50.924;5.320;2023-02-26T16:22:35;4.97;;;1.13;;
25191;SDS011;13143;50.924;5.320;2023-02-26T16:27:53;4.35;;;1.65;;
25191;SDS011;13143;50.924;5.320;2023-02-26T16:30:28;3.28;;;1.13;;
25191;SDS011;13143;50.924;5.320;2023-02-26T16:33:00;4.78;;;1.55;;
25191;SDS011;13143;50.924;5.320;2023-02-26T16:35:31;2.70;;;1.20;;
25191;SDS011;13143;50.924;5.320;2023-02-26T16:38:16;8.30;;;1.80;;
25191;SDS011;13143;50.924;5.320;2023-02-26T16:40:44;5.72;;;1.20;;
25191;SDS011;13143;50.924;5.320;2023-02-26T16:46:15;10.15;;;2.10;;
25191;SDS011;13143;50.924;5.320;2023-02-26T16:51:20;7.20;;;2.30;;
25191;SDS011;13143;50.924;5.320;2023-02-26T16:53:49;7.03;;;2.53;;
25191;SDS011;13143;50.924;5.320;2023-02-26T16:56:28;3.72;;;1.88;;
25191;SDS011;13143;50.924;5.320;2023-02-26T17:01:53;10.30;;;2.20;;
25191;SDS011;13143;50.924;5.320;2023-02-26T17:04:28;4.47;;;1.80;;
25191;SDS011;13143;50.924;5.320;2023-02-26T17:07:04;4.15;;;1.35;;
25191;SDS011;13143;50.924;5.320;2023-02-26T17:09:39;2.15;;;1.35;;
25191;SDS011;13143;50.924;5.320;2023-02-26T17:12:13;5.70;;;1.63;;
25191;SDS011;13143;50.924;5.320;2023-02-26T17:14:41;4.28;;;1.80;;
25191;SDS011;13143;50.924;5.320;2023-02-26T17:17:09;6.18;;;2.00;;
25191;SDS011;13143;50.924;5.320;2023-02-26T17:19:35;7.68;;;2.88;;
25191;SDS011;13143;50.924;5.320;2023-02-26T17:22:02;9.02;;;2.72;;
25191;SDS011;13143;50.924;5.320;2023-02-26T17:24:30;7.07;;;2.45;;
25191;SDS011;13143;50.924;5.320;2023-02-26T17:26:58;7.20;;;2.38;;
25191;SDS011;13143;50.924;5.320;2023-02-26T17:29:30;4.80;;;1.92;;
25191;SDS011;13143;50.924;5.320;2023-02-26T17:32:35;8.63;;;3.13;;
25191;SDS011;13143;50.924;5.320;2023-02-26T17:34:55;6.22;;;2.28;;
25191;SDS011;13143;50.924;5.320;2023-02-26T17:37:21;4.20;;;1.75;;
25191;SDS011;13143;50.924;5.320;2023-02-26T17:39:53;4.72;;;2.33;;
25191;SDS011;13143;50.924;5.320;2023-02-26T17:42:19;5.75;;;2.40;;
25191;SDS011;13143;50.924;5.320;2023-02-26T17:44:46;7.78;;;3.10;;
25191;SDS011;13143;50.924;5.320;2023-02-26T17:47:20;7.95;;;3.00;;
25191;SDS011;13143;50.924;5.320;2023-02-26T17:49:47;10.00;;;3.00;;
25191;SDS011;13143;50.924;5.320;2023-02-26T17:52:13;4.30;;;2.20;;
25191;SDS011;13143;50.924;5.320;2023-02-26T17:54:39;6.20;;;3.28;;
25191;SDS011;13143;50.924;5.320;2023-02-26T17:57:05;7.45;;;2.30;;
25191;SDS011;13143;50.924;5.320;2023-02-26T17:59:33;5.82;;;2.30;;
25191;SDS011;13143;50.924;5.320;2023-02-26T18:01:59;4.35;;;2.17;;
25191;SDS011;13143;50.924;5.320;2023-02-26T18:04:25;7.28;;;2.58;;
25191;SDS011;13143;50.924;5.320;2023-02-26T18:06:51;7.80;;;2.20;;
25191;SDS011;13143;50.924;5.320;2023-02-26T18:09:17;5.00;;;2.00;;
25191;SDS011;13143;50.924;5.320;2023-02-26T18:11:43;7.45;;;2.33;;
25191;SDS011;13143;50.924;5.320;2023-02-26T18:14:10;5.97;;;1.65;;
25191;SDS011;13143;50.924;5.320;2023-02-26T18:16:37;11.00;;;2.35;;
25191;SDS011;13143;50.924;5.320;2023-02-26T18:19:04;4.03;;;2.00;;
25191;SDS011;13143;50.924;5.320;2023-02-26T18:21:31;4.03;;;1.65;;
25191;SDS011;13143;50.924;5.320;2023-02-26T18:23:57;4.07;;;1.60;;
25191;SDS011;13143;50.924;5.320;2023-02-26T18:26:25;8.23;;;2.60;;
25191;SDS011;13143;50.924;5.320;2023-02-26T18:28:53;5.13;;;2.20;;
25191;SDS011;13143;50.924;5.320;2023-02-26T18:31:20;5.32;;;2.00;;
25191;SDS011;13143;50.924;5.320;2023-02-26T18:33:46;9.65;;;2.10;;
25191;SDS011;13143;50.924;5.320;2023-02-26T18:36:15;7.88;;;2.10;;
25191;SDS011;13143;50.924;5.320;2023-02-26T18:38:47;6.05;;;2.10;;
25191;SDS011;13143;50.924;5.320;2023-02-26T18:41:12;5.78;;;2.38;;
25191;SDS011;13143;50.924;5.320;2023-02-26T18:43:38;6.60;;;2.40;;